createdAt,value
2019-05-13T00:01:34.500Z,103466.41
2019-05-13T00:04:38.857Z,103461.79
2019-05-13T00:07:43.825Z,103466.42
2019-05-13T00:10:48.298Z,103458.98
2019-05-13T00:13:53.719Z,103456.22
2019-05-13T00:16:58.131Z,103465.02
2019-05-13T00:20:03.988Z,103455.35
2019-05-13T00:23:08.520Z,103459.04
2019-05-13T00:26:14.067Z,103462.63
2019-05-13T00:29:18.474Z,103456.67
2019-05-13T00:32:23.714Z,103461.25
2019-05-13T00:35:28.048Z,103460.30
2019-05-13T00:38:33.570Z,103463.33
2019-05-13T00:41:38.010Z,103473.16
2019-05-13T00:44:44.375Z,103468.25
2019-05-13T00:47:48.300Z,103465.40
2019-05-13T00:50:54.431Z,103466.97
2019-05-13T00:53:58.578Z,103468.78
2019-05-13T00:57:04.132Z,103468.87
2019-05-13T01:00:09.420Z,103470.94
2019-05-13T01:03:14.171Z,103473.99
2019-05-13T01:06:18.539Z,103472.75
2019-05-13T01:09:23.734Z,103472.55
2019-05-13T01:12:28.083Z,103476.80
2019-05-13T01:15:34.269Z,103478.20
2019-05-13T01:18:38.355Z,103479.86
2019-05-13T01:21:43.448Z,103482.78
2019-05-13T01:24:47.900Z,103480.10
2019-05-13T01:27:53.747Z,103480.10
2019-05-13T01:30:58.049Z,103480.60
2019-05-13T01:34:03.996Z,103484.27
2019-05-13T01:37:08.476Z,103488.02
2019-05-13T01:40:13.606Z,103489.62
2019-05-13T01:43:18.043Z,103482.94
2019-05-13T01:46:24.100Z,103491.08
2019-05-13T01:49:28.540Z,103491.98
2019-05-13T01:52:34.323Z,103499.98
2019-05-13T01:55:38.751Z,103496.92
2019-05-13T01:58:44.984Z,103504.68
2019-05-13T02:01:49.076Z,103497.25
2019-05-13T02:04:53.383Z,103506.78
2019-05-13T02:08:00.662Z,103510.33
2019-05-13T02:11:04.499Z,103506.69
2019-05-13T02:14:08.874Z,103499.77
2019-05-13T02:17:14.629Z,103507.10
2019-05-13T02:20:19.032Z,103503.38
2019-05-13T02:23:24.110Z,103512.53
2019-05-13T02:26:28.604Z,103506.92
2019-05-13T02:29:34.493Z,103511.80
2019-05-13T02:32:38.851Z,103514.63
2019-05-13T02:35:43.588Z,103513.77
2019-05-13T02:38:47.979Z,103519.05
2019-05-13T02:41:52.901Z,103518.91
2019-05-13T02:44:57.322Z,103522.97
2019-05-13T02:48:03.439Z,103519.02
2019-05-13T02:51:07.663Z,103524.97
2019-05-13T02:54:12.648Z,103526.88
2019-05-13T02:57:16.986Z,103526.92
2019-05-13T03:00:23.593Z,103539.53
2019-05-13T03:03:27.327Z,103534.75
2019-05-13T03:06:33.092Z,103542.67
2019-05-13T03:09:37.717Z,103543.87
2019-05-13T03:12:42.559Z,103546.73
2019-05-13T03:16:02.808Z,103544.81
2019-05-13T03:19:06.421Z,103545.67
2019-05-13T03:22:13.494Z,103549.38
2019-05-13T03:25:16.671Z,103541.45
2019-05-13T03:28:22.319Z,103545.55
2019-05-13T03:31:27.158Z,103535.98
2019-05-13T03:34:35.783Z,103549.82
2019-05-13T03:37:42.067Z,103536.17
2019-05-13T03:40:46.209Z,103544.17
2019-05-13T03:43:53.529Z,103546.27
2019-05-13T03:47:03.468Z,103554.30
2019-05-13T03:50:07.726Z,103554.05
2019-05-13T03:53:13.047Z,103557.27
2019-05-13T03:56:17.468Z,103563.38
2019-05-13T03:59:22.614Z,103563.14
2019-05-13T04:02:27.207Z,103566.47
2019-05-13T04:05:33.445Z,103568.84
2019-05-13T04:08:37.525Z,103571.81
2019-05-13T04:11:42.471Z,103573.09
2019-05-13T04:14:46.778Z,103565.58
2019-05-13T04:17:53.103Z,103565.20
2019-05-13T04:20:57.057Z,103570.48
2019-05-13T04:24:04.087Z,103569.77
2019-05-13T04:27:07.317Z,103578.87
2019-05-13T04:30:13.316Z,103575.73
2019-05-13T04:33:17.828Z,103581.05
2019-05-13T04:36:23.528Z,103584.28
2019-05-13T04:39:44.483Z,103587.97
2019-05-13T04:42:34.289Z,103578.31
2019-05-13T04:45:38.672Z,103594.75
2019-05-13T04:48:44.233Z,103594.48
2019-05-13T04:51:52.127Z,103594.92
2019-05-13T04:54:54.890Z,103592.41
2019-05-13T04:57:59.179Z,103588.25
2019-05-13T05:01:32.494Z,103592.48
2019-05-13T05:04:52.434Z,103595.59
2019-05-13T05:08:18.049Z,103590.27
2019-05-13T05:11:52.735Z,103586.34
2019-05-13T05:15:33.376Z,103587.91
2019-05-13T05:19:05.675Z,103590.45
2019-05-13T05:22:51.277Z,103585.03
2019-05-13T05:26:31.398Z,103584.58
2019-05-13T05:30:11.288Z,103588.05
2019-05-13T05:33:57.754Z,103597.05
2019-05-13T05:37:41.699Z,103603.04
2019-05-13T05:40:48.472Z,103598.11
2019-05-13T05:43:55.989Z,103597.22
2019-05-13T05:47:03.068Z,103598.10
2019-05-13T05:50:07.659Z,103587.44
2019-05-13T05:53:15.035Z,103597.46
2019-05-13T05:56:22.029Z,103589.14
2019-05-13T05:59:31.988Z,103595.94
2019-05-13T06:02:42.305Z,103604.27
2019-05-13T06:05:46.278Z,103598.83
2019-05-13T06:08:51.619Z,103599.47
2019-05-13T06:11:56.109Z,103608.78
2019-05-13T06:15:02.685Z,103603.38
2019-05-13T06:18:06.566Z,103606.97
2019-05-13T06:21:13.930Z,103609.78
2019-05-13T06:24:18.315Z,103609.78
2019-05-13T06:27:22.947Z,103607.90
2019-05-13T06:30:27.204Z,103609.66
2019-05-13T06:33:31.867Z,103613.25
2019-05-13T06:36:36.136Z,103613.76
2019-05-13T06:39:41.942Z,103615.03
2019-05-13T06:42:46.437Z,103613.08
2019-05-13T06:45:51.389Z,103623.16
2019-05-13T06:48:55.925Z,103622.39
2019-05-13T06:52:01.669Z,103621.98
2019-05-13T06:55:06.941Z,103631.84
2019-05-13T06:58:11.574Z,103627.80
2019-05-13T07:01:15.995Z,103621.53
2019-05-13T07:04:21.893Z,103633.20
2019-05-13T07:07:26.350Z,103620.62
2019-05-13T07:10:32.126Z,103628.72
2019-05-13T07:13:36.562Z,103626.06
2019-05-13T07:16:42.104Z,103640.37
2019-05-13T07:19:46.793Z,103631.55
2019-05-13T07:22:53.173Z,103641.08
2019-05-13T07:25:57.389Z,103643.95
2019-05-13T07:29:03.505Z,103645.09
2019-05-13T07:32:07.666Z,103641.44
2019-05-13T07:35:13.951Z,103635.58
2019-05-13T07:38:18.789Z,103633.09
2019-05-13T07:41:35.619Z,103633.09
2019-05-13T07:44:29.068Z,103624.33
2019-05-13T07:47:33.349Z,103639.70
2019-05-13T07:50:51.537Z,103638.61
2019-05-13T07:53:43.681Z,103642.00
2019-05-13T07:56:47.945Z,103638.31
2019-05-13T07:59:52.520Z,103638.11
2019-05-13T08:02:56.828Z,103632.13
2019-05-13T08:06:01.909Z,103637.84
2019-05-13T08:09:09.104Z,103637.84
2019-05-13T08:12:14.510Z,103637.99
2019-05-13T08:15:19.110Z,103635.60
2019-05-13T08:18:23.373Z,103633.30
2019-05-13T08:21:27.644Z,103619.75
2019-05-13T08:24:31.917Z,103619.75
2019-05-13T08:27:36.217Z,103617.44
2019-05-13T08:30:42.637Z,103622.77
2019-05-13T08:33:46.500Z,103620.82
2019-05-13T08:36:51.399Z,103622.98
2019-05-13T08:39:55.747Z,103617.97
2019-05-13T08:43:01.388Z,103616.53
2019-05-13T08:46:05.801Z,103613.82
2019-05-13T08:49:11.906Z,103616.55
2019-05-13T08:52:19.208Z,103615.58
2019-05-13T08:55:23.508Z,103605.02
2019-05-13T08:58:27.781Z,103603.68
2019-05-13T09:01:32.097Z,103604.45
2019-05-13T09:04:36.331Z,103605.25
2019-05-13T09:07:41.270Z,103607.83
2019-05-13T09:10:45.757Z,103600.88
2019-05-13T09:13:51.613Z,103606.89
2019-05-13T09:16:56.032Z,103593.91
2019-05-13T09:20:02.799Z,103603.33
2019-05-13T09:23:06.342Z,103599.26
2019-05-13T09:26:11.878Z,103597.92
2019-05-13T09:29:16.418Z,103605.56
2019-05-13T09:32:21.488Z,103602.56
2019-05-13T09:35:25.974Z,103605.03
2019-05-13T09:38:32.651Z,103594.55
2019-05-13T09:41:40.916Z,103607.72
2019-05-13T09:44:42.246Z,103604.56
2019-05-13T09:47:46.515Z,103605.67
2019-05-13T09:50:51.711Z,103609.64
2019-05-13T09:53:56.198Z,103612.90
2019-05-13T09:57:01.696Z,103607.55
2019-05-13T10:00:06.540Z,103599.56
2019-05-13T10:03:13.511Z,103604.60
2019-05-13T10:06:16.814Z,103608.12
2019-05-13T10:09:21.786Z,103601.98
2019-05-13T10:12:26.054Z,103606.89
2019-05-13T10:15:32.582Z,103594.86
2019-05-13T10:18:36.855Z,103595.98
2019-05-13T10:21:42.076Z,103597.50
2019-05-13T10:24:46.865Z,103601.46
2019-05-13T10:27:51.374Z,103611.89
2019-05-13T10:30:55.772Z,103610.00
2019-05-13T10:34:02.296Z,103598.95
2019-05-13T10:37:06.431Z,103602.60
2019-05-13T10:40:11.607Z,103595.23
2019-05-13T10:43:29.234Z,103587.61
2019-05-13T10:46:22.361Z,103586.03
2019-05-13T10:49:26.717Z,103594.15
2019-05-13T10:52:32.185Z,103597.29
2019-05-13T10:55:36.671Z,103589.27
2019-05-13T10:58:42.735Z,103596.80
2019-05-13T11:01:47.150Z,103591.94
2019-05-13T11:04:52.544Z,103591.06
2019-05-13T11:07:56.991Z,103587.54
2019-05-13T11:11:02.310Z,103584.88
2019-05-13T11:14:10.811Z,103588.00
2019-05-13T11:17:15.699Z,103588.43
2019-05-13T11:20:22.122Z,103581.28
2019-05-13T11:23:25.937Z,103571.89
2019-05-13T11:26:35.923Z,103575.94
2019-05-13T11:29:36.251Z,103567.00
2019-05-13T11:32:42.726Z,103568.78
2019-05-13T11:35:46.785Z,103566.94
2019-05-13T11:38:53.083Z,103566.97
2019-05-13T11:41:57.062Z,103562.53
2019-05-13T11:45:01.346Z,103566.11
2019-05-13T11:48:05.767Z,103560.73
2019-05-13T11:51:13.101Z,103562.54
2019-05-13T11:54:16.287Z,103555.37
2019-05-13T11:57:20.613Z,103551.79
2019-05-13T12:00:53.059Z,103552.63
2019-05-13T12:03:57.020Z,103546.42
2019-05-13T12:07:03.436Z,103551.81
2019-05-13T12:10:07.924Z,103552.70
2019-05-13T12:13:12.650Z,103545.52
2019-05-13T12:16:17.049Z,103544.63
2019-05-13T12:19:22.090Z,103553.55
2019-05-13T12:22:26.406Z,103558.48
2019-05-13T12:25:33.452Z,103552.67
2019-05-13T12:28:36.671Z,103544.22
2019-05-13T12:31:40.998Z,103543.77
2019-05-13T12:34:46.077Z,103547.28
2019-05-13T12:37:53.365Z,103545.46
2019-05-13T12:40:56.544Z,103541.91
2019-05-13T12:44:01.798Z,103540.64
2019-05-13T12:47:06.370Z,103534.34
2019-05-13T12:50:13.388Z,103537.02
2019-05-13T12:53:16.870Z,103543.68
2019-05-13T12:56:23.569Z,103540.09
2019-05-13T12:59:27.255Z,103534.34
2019-05-13T13:05:45.762Z,103532.02
2019-05-13T13:08:50.950Z,103529.36
2019-05-13T13:11:55.405Z,103520.52
2019-05-13T13:15:06.574Z,103514.27
2019-05-13T13:18:05.719Z,103519.16
2019-05-13T13:21:14.323Z,103521.37
2019-05-13T13:24:17.626Z,103524.91
2019-05-13T13:27:37.720Z,103509.72
2019-05-13T13:30:34.571Z,103513.78
2019-05-13T13:33:35.496Z,103503.05
2019-05-13T13:36:45.287Z,103512.41
2019-05-13T13:39:45.822Z,103507.48
2019-05-13T13:49:02.183Z,103486.96
2019-05-13T13:52:06.481Z,103490.58
2019-05-13T13:55:15.781Z,103487.00
2019-05-13T13:58:17.302Z,103475.85
2019-05-13T14:01:27.061Z,103477.13
2019-05-13T14:04:27.727Z,103478.52
2019-05-13T14:06:58.777Z,103502.61
2019-05-13T14:07:37.820Z,103481.63
2019-05-13T14:10:39.033Z,103474.50
2019-05-13T14:13:43.331Z,103486.53
2019-05-13T14:16:47.760Z,103483.83
2019-05-13T14:19:52.491Z,103487.44
2019-05-13T14:22:58.163Z,103468.70
2019-05-13T14:26:02.713Z,103478.95
2019-05-13T14:29:06.997Z,103474.89
2019-05-13T14:32:11.359Z,103464.23
2019-05-13T14:35:17.120Z,103472.72
2019-05-13T14:38:22.343Z,103472.66
2019-05-13T14:41:26.908Z,103477.14
2019-05-13T14:44:32.474Z,103476.73
2019-05-13T14:47:36.989Z,103476.30
2019-05-13T14:50:41.831Z,103477.63
2019-05-13T14:53:46.118Z,103471.33
2019-05-13T14:56:52.075Z,103465.89
2019-05-13T14:59:56.665Z,103462.77
2019-05-13T15:03:03.169Z,103468.17
2019-05-13T15:06:07.064Z,103464.66
2019-05-13T15:09:12.597Z,103459.30
2019-05-13T15:12:17.297Z,103466.46
2019-05-13T15:15:23.260Z,103456.55
2019-05-13T15:18:27.569Z,103457.78
2019-05-13T15:21:34.065Z,103453.08
2019-05-13T15:24:38.354Z,103464.63
2019-05-13T15:27:42.644Z,103453.25
2019-05-13T15:30:47.212Z,103457.72
2019-05-13T15:33:53.317Z,103457.07
2019-05-13T15:36:57.594Z,103451.78
2019-05-13T15:40:02.444Z,103449.64
2019-05-13T15:43:06.897Z,103452.23
2019-05-13T15:46:12.552Z,103446.72
2019-05-13T15:49:17.245Z,103439.58
2019-05-13T15:52:22.606Z,103446.50
2019-05-13T15:55:27.145Z,103444.59
2019-05-13T15:58:38.808Z,103442.40
2019-05-13T16:01:37.485Z,103442.36
2019-05-13T16:04:52.590Z,103440.98
2019-05-13T16:07:52.323Z,103446.16
2019-05-13T16:10:56.920Z,103449.48
2019-05-13T16:14:02.120Z,103447.26
2019-05-13T16:17:06.695Z,103451.44
2019-05-13T16:20:11.568Z,103450.61
2019-05-13T16:23:17.092Z,103453.72
2019-05-13T16:26:22.661Z,103446.41
2019-05-13T16:29:27.137Z,103452.97
2019-05-13T16:32:31.965Z,103449.81
2019-05-13T16:35:36.521Z,103445.62
2019-05-13T16:38:42.749Z,103434.64
2019-05-13T16:41:47.088Z,103440.58
2019-05-13T16:44:51.743Z,103443.42
2019-05-13T16:47:58.659Z,103445.16
2019-05-13T16:51:04.269Z,103445.96
2019-05-13T16:54:09.711Z,103447.16
2019-05-13T16:57:14.174Z,103443.92
2019-05-13T17:00:20.293Z,103443.27
2019-05-13T17:03:24.623Z,103447.25
2019-05-13T17:06:28.955Z,103451.98
2019-05-13T17:09:33.238Z,103452.62
2019-05-13T17:12:39.353Z,103453.20
2019-05-13T17:15:43.658Z,103454.73
2019-05-13T17:18:47.975Z,103449.05
2019-05-13T17:21:52.333Z,103452.61
2019-05-13T17:24:56.865Z,103453.48
2019-05-13T17:28:02.893Z,103461.95
2019-05-13T17:31:07.672Z,103465.91
2019-05-13T17:34:12.283Z,103464.41
2019-05-13T17:37:16.679Z,103461.25
2019-05-13T17:40:22.517Z,103459.87
2019-05-13T17:43:26.955Z,103462.72
2019-05-13T17:46:32.709Z,103469.70
2019-05-13T17:49:37.150Z,103465.57
2019-05-13T17:52:42.546Z,103468.61
2019-05-13T17:55:46.907Z,103469.96
2019-05-13T17:58:51.230Z,103466.73
2019-05-13T18:01:55.697Z,103474.68
2019-05-13T18:05:02.109Z,103472.92
2019-05-13T18:08:07.458Z,103474.69
2019-05-13T18:11:11.756Z,103485.20
2019-05-13T18:14:16.137Z,103481.52
2019-05-13T18:17:21.540Z,103481.52
2019-05-13T18:20:25.924Z,103477.94
2019-05-13T18:23:30.500Z,103485.88
2019-05-13T18:26:35.133Z,103486.19
2019-05-13T18:29:42.000Z,103484.70
2019-05-13T18:32:46.934Z,103495.10
2019-05-13T18:35:52.541Z,103494.13
2019-05-13T18:38:57.065Z,103501.16
2019-05-13T18:42:01.706Z,103497.48
2019-05-13T18:45:06.886Z,103498.75
2019-05-13T18:48:12.313Z,103501.23
2019-05-13T18:51:16.917Z,103501.23
2019-05-13T18:54:22.583Z,103504.14
2019-05-13T18:57:28.651Z,103513.31
2019-05-13T19:00:34.528Z,103529.84
2019-05-13T19:03:41.449Z,103529.84
2019-05-13T19:06:46.020Z,103529.83
2019-05-13T19:09:52.269Z,103535.31
2019-05-13T19:12:57.952Z,103532.70
2019-05-13T19:16:02.812Z,103532.33
2019-05-13T19:19:13.431Z,103540.62
2019-05-13T19:22:14.438Z,103542.67
2019-05-13T19:25:20.333Z,103549.72
2019-05-13T19:28:25.128Z,103548.00
2019-05-13T19:31:29.841Z,103545.64
2019-05-13T19:34:34.293Z,103542.80
2019-05-13T19:37:39.023Z,103539.21
2019-05-13T19:40:43.724Z,103539.08
2019-05-13T19:43:51.007Z,103534.09
2019-05-13T19:46:55.781Z,103531.20
2019-05-13T19:50:02.243Z,103533.23
2019-05-13T19:53:08.481Z,103537.95
2019-05-13T19:56:13.124Z,103545.53
2019-05-13T19:59:17.937Z,103548.89
2019-05-13T20:02:22.636Z,103548.45
2019-05-13T20:05:27.122Z,103555.69
2019-05-13T20:08:32.205Z,103562.31
2019-05-13T20:11:38.848Z,103557.16
2019-05-13T20:14:45.096Z,103557.16
2019-05-13T20:17:52.130Z,103556.23
2019-05-13T20:20:56.958Z,103554.95
2019-05-13T20:24:02.453Z,103544.63
2019-05-13T20:27:06.772Z,103555.07
2019-05-13T20:30:11.575Z,103556.66
2019-05-13T20:33:15.872Z,103554.88
2019-05-13T20:36:22.219Z,103556.41
2019-05-13T20:39:26.690Z,103551.92
2019-05-13T20:42:31.034Z,103551.19
2019-05-13T20:45:36.712Z,103557.20
2019-05-13T20:48:41.277Z,103556.66
2019-05-13T20:51:45.737Z,103563.48
2019-05-13T20:54:51.163Z,103567.67
2019-05-13T20:57:57.423Z,103567.39
2019-05-13T21:01:02.513Z,103572.42
2019-05-13T21:04:06.968Z,103576.08
2019-05-13T21:07:11.299Z,103569.70
2019-05-13T21:10:17.066Z,103566.95
2019-05-13T21:13:21.412Z,103560.94
2019-05-13T21:16:26.028Z,103568.28
2019-05-13T21:19:39.293Z,103572.36
2019-05-13T21:22:36.362Z,103573.59
2019-05-13T21:25:41.833Z,103568.60
2019-05-13T21:28:46.330Z,103561.26
2019-05-13T21:31:52.859Z,103566.71
2019-05-13T21:34:56.656Z,103571.59
2019-05-13T21:38:01.739Z,103573.76
2019-05-13T21:41:06.136Z,103585.48
2019-05-13T21:44:11.979Z,103573.91
2019-05-13T21:47:16.368Z,103576.94
2019-05-13T21:50:33.587Z,103572.75
2019-05-13T21:53:32.355Z,103567.66
2019-05-13T21:56:35.850Z,103569.34
2019-05-13T21:59:41.432Z,103567.97
2019-05-13T22:02:47.065Z,103569.58
2019-05-13T22:05:51.684Z,103566.44
2019-05-13T22:08:56.150Z,103569.11
2019-05-13T22:12:01.822Z,103577.78
2019-05-13T22:15:07.140Z,103576.65
2019-05-13T22:18:11.474Z,103579.19
2019-05-13T22:21:16.128Z,103576.65
2019-05-13T22:24:22.107Z,103585.43
2019-05-13T22:27:26.469Z,103580.59
2019-05-13T22:30:33.538Z,103578.70
2019-05-13T22:33:41.109Z,103583.84
2019-05-13T22:36:45.423Z,103579.37
2019-05-13T22:39:49.752Z,103581.12
2019-05-13T22:42:56.629Z,103572.69
2019-05-13T22:46:00.060Z,103578.36
2019-05-13T22:49:04.323Z,103579.19
2019-05-13T22:52:08.603Z,103578.73
2019-05-13T22:55:12.964Z,103586.56
2019-05-13T22:58:17.236Z,103598.10
2019-05-13T23:01:21.942Z,103591.10
2019-05-13T23:04:26.367Z,103600.75
2019-05-13T23:07:31.543Z,103600.59
2019-05-13T23:10:36.013Z,103603.01
2019-05-13T23:13:42.194Z,103598.96
2019-05-13T23:16:46.416Z,103586.02
2019-05-13T23:19:52.264Z,103592.44
2019-05-13T23:22:56.759Z,103588.35
2019-05-13T23:26:01.341Z,103586.05
2019-05-13T23:29:05.623Z,103593.69
2019-05-13T23:32:11.920Z,103586.00
2019-05-13T23:35:16.021Z,103586.63
2019-05-13T23:38:21.401Z,103589.03
2019-05-13T23:41:25.812Z,103585.06
2019-05-13T23:44:32.233Z,103585.89
2019-05-13T23:47:36.085Z,103584.94
2019-05-13T23:50:41.490Z,103586.27
2019-05-13T23:53:45.900Z,103581.39
2019-05-13T23:56:50.181Z,103578.78
2019-05-13T23:59:54.560Z,103578.29
